createdAt,value
2023-03-15T00:01:26.304Z,52.10
2023-03-15T00:03:55.009Z,52.02
2023-03-15T00:06:22.132Z,51.91
2023-03-15T00:08:49.019Z,51.67
2023-03-15T00:11:16.990Z,51.86
2023-03-15T00:13:44.987Z,52.07
2023-03-15T00:16:17.273Z,52.11
2023-03-15T00:18:47.711Z,52.12
2023-03-15T00:21:15.169Z,52.06
2023-03-15T00:23:42.042Z,51.98
2023-03-15T00:26:08.834Z,52.05
2023-03-15T00:28:35.949Z,52.09
2023-03-15T00:31:16.208Z,52.17
2023-03-15T00:33:45.268Z,51.83
2023-03-15T00:36:13.204Z,52.13
2023-03-15T00:38:43.835Z,52.04
2023-03-15T00:41:14.928Z,52.38
2023-03-15T00:43:43.309Z,51.99
2023-03-15T00:46:10.892Z,52.07
2023-03-15T00:48:38.143Z,52.30
2023-03-15T00:51:07.090Z,52.10
2023-03-15T00:53:35.627Z,51.72
2023-03-15T00:56:13.039Z,51.88
2023-03-15T00:58:40.694Z,52.01
2023-03-15T01:01:17.579Z,51.87
2023-03-15T01:03:45.672Z,51.86
2023-03-15T01:06:16.685Z,51.70
2023-03-15T01:08:44.073Z,51.70
2023-03-15T01:11:15.338Z,51.71
2023-03-15T01:13:42.748Z,51.55
2023-03-15T01:16:13.438Z,51.76
2023-03-15T01:18:41.227Z,51.88
2023-03-15T01:21:11.082Z,51.57
2023-03-15T01:23:37.832Z,51.43
2023-03-15T01:26:07.804Z,51.37
2023-03-15T01:28:34.625Z,51.43
2023-03-15T01:31:02.946Z,51.25
2023-03-15T01:33:29.872Z,51.21
2023-03-15T01:36:06.478Z,51.27
2023-03-15T01:38:34.367Z,51.16
2023-03-15T01:41:02.392Z,51.19
2023-03-15T01:43:34.223Z,51.09
2023-03-15T01:46:34.030Z,51.11
2023-03-15T01:49:22.706Z,51.06
2023-03-15T01:51:57.826Z,50.95
2023-03-15T01:54:37.446Z,50.96
2023-03-15T01:57:17.050Z,50.83
2023-03-15T01:59:52.967Z,50.61
2023-03-15T02:02:23.220Z,50.65
2023-03-15T02:05:09.862Z,50.69
2023-03-15T02:07:49.899Z,50.36
2023-03-15T02:10:29.002Z,50.18
2023-03-15T02:12:59.607Z,50.24
2023-03-15T02:15:27.287Z,49.85
2023-03-15T02:17:54.630Z,49.79
2023-03-15T02:21:09.959Z,49.80
2023-03-15T02:23:36.880Z,49.43
2023-03-15T02:26:26.076Z,49.48
2023-03-15T02:28:54.293Z,49.28
2023-03-15T02:31:21.918Z,49.15
2023-03-15T02:33:55.462Z,49.16
2023-03-15T02:36:25.360Z,49.12
2023-03-15T02:38:53.633Z,48.97
2023-03-15T02:41:42.247Z,48.90
2023-03-15T02:44:24.733Z,49.09
2023-03-15T02:46:55.410Z,48.95
2023-03-15T02:49:27.258Z,48.99
2023-03-15T02:51:54.514Z,48.86
2023-03-15T02:54:21.344Z,48.99
2023-03-15T02:56:48.163Z,48.91
2023-03-15T02:59:14.988Z,49.18
2023-03-15T03:01:42.143Z,48.96
2023-03-15T03:04:09.205Z,48.89
2023-03-15T03:06:36.043Z,48.81
2023-03-15T03:09:04.624Z,48.95
2023-03-15T03:11:31.516Z,49.15
2023-03-15T03:13:58.325Z,49.06
2023-03-15T03:16:25.330Z,49.04
2023-03-15T03:18:52.256Z,49.02
2023-03-15T03:21:19.345Z,48.90
2023-03-15T03:23:46.148Z,48.86
2023-03-15T03:26:17.141Z,48.80
2023-03-15T03:28:47.739Z,48.98
2023-03-15T03:31:23.548Z,48.93
2023-03-15T03:33:52.441Z,48.54
2023-03-15T03:36:19.771Z,48.68
2023-03-15T03:38:47.294Z,48.74
2023-03-15T03:41:15.342Z,48.82
2023-03-15T03:43:42.323Z,48.74
2023-03-15T03:46:09.975Z,48.87
2023-03-15T03:48:41.531Z,48.55
2023-03-15T03:51:08.392Z,48.40
2023-03-15T03:53:35.478Z,48.61
2023-03-15T03:56:06.005Z,48.50
2023-03-15T03:58:34.391Z,48.49
2023-03-15T04:01:12.380Z,48.05
2023-03-15T04:03:40.791Z,48.21
2023-03-15T04:06:14.227Z,48.26
2023-03-15T04:08:44.637Z,48.38
2023-03-15T04:11:17.533Z,48.09
2023-03-15T04:13:49.189Z,48.25
2023-03-15T04:16:16.080Z,48.42
2023-03-15T04:19:07.488Z,48.44
2023-03-15T04:21:36.942Z,48.46
2023-03-15T04:24:18.966Z,47.93
2023-03-15T04:27:15.043Z,48.26
2023-03-15T04:29:59.790Z,48.42
2023-03-15T04:33:00.184Z,48.20
2023-03-15T04:35:47.340Z,48.59
2023-03-15T04:38:35.421Z,48.64
2023-03-15T04:41:26.933Z,48.61
2023-03-15T04:44:03.756Z,48.88
2023-03-15T04:46:55.188Z,48.70
2023-03-15T04:49:42.300Z,48.41
2023-03-15T04:52:32.071Z,48.46
2023-03-15T04:55:10.026Z,48.30
2023-03-15T04:57:58.274Z,48.19
2023-03-15T05:00:33.837Z,48.07
2023-03-15T05:03:07.033Z,48.33
2023-03-15T05:05:54.043Z,48.03
2023-03-15T05:08:39.581Z,47.68
2023-03-15T05:11:33.834Z,47.99
2023-03-15T05:14:16.789Z,48.23
2023-03-15T05:17:02.220Z,48.50
2023-03-15T05:20:12.393Z,48.32
2023-03-15T05:22:49.285Z,48.61
2023-03-15T05:25:39.574Z,48.41
2023-03-15T05:28:31.636Z,48.27
2023-03-15T05:31:15.267Z,48.01
2023-03-15T05:34:04.208Z,48.28
2023-03-15T05:36:51.881Z,48.17
2023-03-15T05:39:35.352Z,48.12
2023-03-15T05:42:11.876Z,48.62
2023-03-15T05:44:59.146Z,48.30
2023-03-15T05:47:55.126Z,48.21
2023-03-15T05:50:33.714Z,48.44
2023-03-15T05:53:18.150Z,48.39
2023-03-15T05:56:05.508Z,47.92
2023-03-15T05:58:51.059Z,48.24
2023-03-15T06:01:47.248Z,48.03
2023-03-15T06:04:23.772Z,47.81
2023-03-15T06:06:52.578Z,48.30
2023-03-15T06:09:21.093Z,47.94
2023-03-15T06:11:47.922Z,48.45
2023-03-15T06:14:14.736Z,48.13
2023-03-15T06:16:52.899Z,48.03
2023-03-15T06:19:21.347Z,48.16
2023-03-15T06:21:48.889Z,47.95
2023-03-15T06:24:23.164Z,48.44
2023-03-15T06:26:50.030Z,48.49
2023-03-15T06:29:17.391Z,48.75
2023-03-15T06:31:49.394Z,48.62
2023-03-15T06:34:17.368Z,48.34
2023-03-15T06:36:45.261Z,48.73
2023-03-15T06:39:13.340Z,48.86
2023-03-15T06:41:41.673Z,49.06
2023-03-15T06:44:13.958Z,48.96
2023-03-15T06:46:41.891Z,48.93
2023-03-15T06:49:08.695Z,49.21
2023-03-15T06:51:36.494Z,49.22
2023-03-15T06:54:03.442Z,49.10
2023-03-15T06:56:37.106Z,49.16
2023-03-15T06:59:04.495Z,49.38
2023-03-15T07:01:31.471Z,49.05
2023-03-15T07:03:58.279Z,49.23
2023-03-15T07:06:25.262Z,49.17
2023-03-15T07:08:52.081Z,49.19
2023-03-15T07:11:18.875Z,49.21
2023-03-15T07:13:45.731Z,49.04
2023-03-15T07:16:12.686Z,49.27
2023-03-15T07:18:39.576Z,48.93
2023-03-15T07:21:08.079Z,48.93
2023-03-15T07:23:34.887Z,48.76
2023-03-15T07:26:01.992Z,48.98
2023-03-15T07:28:29.283Z,48.83
2023-03-15T07:31:01.925Z,48.73
2023-03-15T07:33:31.742Z,48.77
2023-03-15T07:35:59.170Z,49.09
2023-03-15T07:38:31.150Z,48.81
2023-03-15T07:40:58.332Z,48.81
2023-03-15T07:43:25.400Z,48.75
2023-03-15T07:46:05.883Z,48.59
2023-03-15T07:48:32.756Z,48.32
2023-03-15T07:50:59.804Z,48.86
2023-03-15T07:53:26.716Z,48.63
2023-03-15T07:55:54.105Z,48.56
2023-03-15T07:58:20.977Z,48.30
2023-03-15T08:00:48.017Z,48.31
2023-03-15T08:03:14.956Z,48.65
2023-03-15T08:05:41.795Z,48.26
2023-03-15T08:08:08.592Z,48.54
2023-03-15T08:10:35.502Z,48.42
2023-03-15T08:13:02.326Z,48.34
2023-03-15T08:15:29.566Z,48.46
2023-03-15T08:17:59.111Z,48.31
2023-03-15T08:20:29.707Z,48.39
2023-03-15T08:22:56.961Z,48.34
2023-03-15T08:25:25.276Z,47.80
2023-03-15T08:27:52.717Z,47.80
2023-03-15T08:30:21.484Z,48.19
2023-03-15T08:32:50.268Z,48.43
2023-03-15T08:35:19.830Z,48.29
2023-03-15T08:37:47.617Z,47.83
2023-03-15T08:40:18.254Z,47.92
2023-03-15T08:42:45.346Z,47.77
2023-03-15T08:45:12.601Z,47.46
2023-03-15T08:47:39.424Z,47.64
2023-03-15T08:50:12.119Z,46.93
2023-03-15T08:52:39.957Z,46.18
2023-03-15T08:55:08.163Z,46.10
2023-03-15T08:57:35.229Z,46.10
2023-03-15T09:00:09.308Z,45.40
2023-03-15T09:02:37.240Z,45.22
2023-03-15T09:05:06.977Z,44.90
2023-03-15T09:07:34.411Z,45.06
2023-03-15T09:10:03.403Z,44.01
2023-03-15T09:12:31.693Z,44.01
2023-03-15T09:14:58.476Z,44.08
2023-03-15T09:17:25.340Z,44.41
2023-03-15T09:19:52.472Z,44.30
2023-03-15T09:22:29.270Z,44.21
2023-03-15T09:25:05.712Z,43.72
2023-03-15T09:27:32.549Z,43.62
2023-03-15T09:29:59.345Z,44.43
2023-03-15T09:32:26.718Z,44.15
2023-03-15T09:34:54.440Z,43.94
2023-03-15T09:37:21.926Z,43.39
2023-03-15T09:39:48.831Z,43.33
2023-03-15T09:42:36.812Z,43.61
2023-03-15T09:45:27.787Z,43.44
2023-03-15T09:48:17.794Z,43.50
2023-03-15T09:50:54.916Z,43.13
2023-03-15T09:53:32.019Z,42.59
2023-03-15T09:55:58.840Z,42.30
2023-03-15T09:58:32.862Z,41.92
2023-03-15T10:01:08.325Z,40.79
2023-03-15T10:03:53.457Z,41.38
2023-03-15T10:06:27.042Z,40.79
2023-03-15T10:08:59.373Z,40.79
2023-03-15T10:11:47.691Z,40.26
2023-03-15T10:14:39.195Z,39.97
2023-03-15T10:17:13.102Z,39.71
2023-03-15T10:19:49.433Z,39.29
2023-03-15T10:22:41.135Z,39.99
2023-03-15T10:25:30.868Z,39.43
2023-03-15T10:28:11.112Z,39.55
2023-03-15T10:30:42.327Z,39.19
2023-03-15T10:33:34.327Z,39.27
2023-03-15T10:36:10.967Z,39.29
2023-03-15T10:38:38.969Z,39.20
2023-03-15T10:41:06.783Z,39.33
2023-03-15T10:43:36.961Z,38.89
2023-03-15T10:46:24.110Z,38.56
2023-03-15T10:49:00.500Z,38.67
2023-03-15T10:51:33.720Z,38.41
2023-03-15T10:54:10.878Z,38.20
2023-03-15T10:56:51.809Z,37.91
2023-03-15T10:59:24.200Z,37.86
2023-03-15T11:02:14.283Z,37.75
2023-03-15T11:05:24.940Z,37.78
2023-03-15T11:08:00.789Z,37.80
2023-03-15T11:10:33.938Z,37.53
2023-03-15T11:13:20.554Z,38.09
2023-03-15T11:16:03.558Z,37.96
2023-03-15T11:18:36.815Z,37.92
2023-03-15T11:21:12.189Z,38.06
2023-03-15T11:23:47.640Z,37.44
2023-03-15T11:26:33.244Z,38.01
2023-03-15T11:29:15.204Z,37.67
2023-03-15T11:31:42.379Z,37.62
2023-03-15T11:34:31.696Z,38.08
2023-03-15T11:37:12.764Z,38.01
2023-03-15T11:39:58.747Z,38.30
2023-03-15T11:42:39.254Z,38.48
2023-03-15T11:45:18.389Z,37.80
2023-03-15T11:47:58.342Z,38.26
2023-03-15T11:50:25.082Z,39.04
2023-03-15T11:52:52.774Z,38.72
2023-03-15T11:55:28.182Z,38.94
2023-03-15T11:57:57.850Z,38.82
2023-03-15T12:00:36.448Z,39.02
2023-03-15T12:03:38.915Z,39.24
2023-03-15T12:06:17.927Z,38.98
2023-03-15T12:08:52.747Z,39.01
2023-03-15T12:11:22.492Z,38.85
2023-03-15T12:14:01.526Z,38.65
2023-03-15T12:16:34.670Z,38.93
2023-03-15T12:19:17.149Z,39.04
2023-03-15T12:21:52.238Z,39.11
2023-03-15T12:24:35.212Z,39.22
2023-03-15T12:27:18.360Z,38.99
2023-03-15T12:29:47.485Z,38.94
2023-03-15T12:32:18.861Z,39.00
2023-03-15T12:34:50.763Z,39.22
2023-03-15T12:37:41.476Z,39.71
2023-03-15T12:40:22.101Z,40.01
2023-03-15T12:42:48.730Z,39.95
2023-03-15T12:45:15.473Z,40.66
2023-03-15T12:47:49.450Z,40.31
2023-03-15T12:50:44.124Z,40.96
2023-03-15T12:53:22.647Z,41.11
2023-03-15T12:55:59.447Z,41.58
2023-03-15T12:58:37.012Z,41.60
2023-03-15T13:01:07.389Z,41.45
2023-03-15T13:03:36.385Z,41.60
2023-03-15T13:06:22.107Z,42.21
2023-03-15T13:09:14.698Z,41.85
2023-03-15T13:12:04.037Z,41.96
2023-03-15T13:14:58.289Z,42.65
2023-03-15T13:17:50.640Z,43.12
2023-03-15T13:20:28.939Z,43.18
2023-03-15T13:23:30.314Z,43.63
2023-03-15T13:26:28.510Z,44.08
2023-03-15T13:29:17.526Z,44.36
2023-03-15T13:31:46.652Z,44.31
2023-03-15T13:34:24.014Z,45.05
2023-03-15T13:37:02.181Z,45.79
2023-03-15T13:39:33.338Z,45.60
2023-03-15T13:42:16.421Z,45.78
2023-03-15T13:44:43.315Z,45.70
2023-03-15T13:47:22.134Z,46.22
2023-03-15T13:49:52.625Z,46.32
2023-03-15T13:52:19.601Z,46.43
2023-03-15T13:54:46.611Z,46.49
2023-03-15T13:57:18.211Z,47.03
2023-03-15T13:59:55.237Z,47.29
2023-03-15T14:02:43.216Z,47.75
2023-03-15T14:05:19.272Z,47.55
2023-03-15T14:07:59.585Z,47.74
2023-03-15T14:11:18.108Z,48.08
2023-03-15T14:13:54.144Z,47.91
2023-03-15T14:16:57.301Z,47.65
2023-03-15T14:19:31.330Z,47.49
2023-03-15T14:22:02.739Z,47.43
2023-03-15T14:24:44.275Z,46.38
2023-03-15T14:27:18.300Z,45.83
2023-03-15T14:29:55.079Z,45.20
2023-03-15T14:32:38.597Z,44.59
2023-03-15T14:35:08.863Z,44.53
2023-03-15T14:37:41.969Z,44.45
2023-03-15T14:40:28.383Z,44.44
2023-03-15T14:42:55.288Z,44.44
2023-03-15T14:45:22.993Z,44.57
2023-03-15T14:48:06.495Z,44.80
2023-03-15T14:50:40.721Z,44.59
2023-03-15T14:53:11.632Z,44.93
2023-03-15T14:55:38.442Z,45.65
2023-03-15T14:58:13.443Z,46.47
2023-03-15T15:00:42.375Z,46.37
2023-03-15T15:03:18.583Z,46.65
2023-03-15T15:05:46.926Z,46.33
2023-03-15T15:08:19.058Z,46.16
2023-03-15T15:10:48.825Z,46.18
2023-03-15T15:13:26.413Z,46.36
2023-03-15T15:15:56.603Z,45.97
2023-03-15T15:18:26.276Z,46.16
2023-03-15T15:20:55.832Z,46.80
2023-03-15T15:23:28.799Z,46.20
2023-03-15T15:26:02.641Z,46.60
2023-03-15T15:28:35.762Z,46.66
2023-03-15T15:31:07.195Z,46.89
2023-03-15T15:33:34.383Z,46.79
2023-03-15T15:36:01.680Z,47.11
2023-03-15T15:38:38.050Z,47.04
2023-03-15T15:41:05.526Z,47.64
2023-03-15T15:43:33.685Z,47.63
2023-03-15T15:46:01.723Z,48.10
2023-03-15T15:48:28.615Z,47.97
2023-03-15T15:50:55.585Z,48.08
2023-03-15T15:53:22.823Z,48.31
2023-03-15T15:55:49.763Z,48.15
2023-03-15T15:58:17.397Z,48.21
2023-03-15T16:00:44.216Z,48.72
2023-03-15T16:03:16.079Z,48.90
2023-03-15T16:05:43.517Z,48.62
2023-03-15T16:08:25.524Z,48.75
2023-03-15T16:10:52.460Z,48.72
2023-03-15T16:13:19.256Z,48.30
2023-03-15T16:15:46.044Z,48.25
2023-03-15T16:18:14.306Z,48.54
2023-03-15T16:20:42.663Z,48.61
2023-03-15T16:23:19.998Z,48.66
2023-03-15T16:25:51.028Z,48.39
2023-03-15T16:28:18.149Z,48.24
2023-03-15T16:30:46.893Z,48.27
2023-03-15T16:33:17.635Z,48.37
2023-03-15T16:35:44.873Z,48.40
2023-03-15T16:38:26.130Z,48.31
2023-03-15T16:40:53.140Z,48.49
2023-03-15T16:43:22.988Z,48.45
2023-03-15T16:45:49.765Z,48.58
2023-03-15T16:48:16.546Z,48.58
2023-03-15T16:50:44.067Z,48.56
2023-03-15T16:53:13.185Z,48.09
2023-03-15T16:55:40.457Z,48.16
2023-03-15T16:58:19.093Z,48.38
2023-03-15T17:00:47.891Z,47.98
2023-03-15T17:03:16.608Z,48.12
2023-03-15T17:05:46.445Z,47.92
2023-03-15T17:08:19.257Z,48.29
2023-03-15T17:10:47.205Z,47.73
2023-03-15T17:13:24.645Z,48.02
2023-03-15T17:15:51.537Z,47.86
2023-03-15T17:18:21.648Z,47.81
2023-03-15T17:20:50.052Z,47.91
2023-03-15T17:23:17.773Z,47.60
2023-03-15T17:25:44.727Z,48.19
2023-03-15T17:28:11.543Z,47.91
2023-03-15T17:30:38.557Z,47.89
2023-03-15T17:33:06.555Z,48.15
2023-03-15T17:35:38.040Z,48.20
2023-03-15T17:38:07.357Z,47.74
2023-03-15T17:40:36.156Z,47.74
2023-03-15T17:43:04.978Z,47.79
2023-03-15T17:45:34.449Z,47.71
2023-03-15T17:48:02.391Z,47.61
2023-03-15T17:50:32.408Z,47.82
2023-03-15T17:53:16.529Z,47.80
2023-03-15T17:55:44.146Z,47.38
2023-03-15T17:58:17.476Z,47.45
2023-03-15T18:00:44.374Z,47.90
2023-03-15T18:03:13.503Z,47.86
2023-03-15T18:05:40.895Z,47.60
2023-03-15T18:08:12.296Z,48.11
2023-03-15T18:10:43.739Z,47.83
2023-03-15T18:13:21.438Z,47.81
2023-03-15T18:15:50.010Z,47.79
2023-03-15T18:18:17.842Z,47.84
2023-03-15T18:20:45.824Z,47.63
2023-03-15T18:23:14.860Z,47.51
2023-03-15T18:25:42.977Z,47.48
2023-03-15T18:28:09.840Z,47.93
2023-03-15T18:30:36.601Z,47.97
2023-03-15T18:33:05.608Z,47.74
2023-03-15T18:35:35.480Z,47.55
2023-03-15T18:38:04.169Z,47.81
2023-03-15T18:40:32.634Z,47.59
2023-03-15T18:43:00.196Z,47.80
2023-03-15T18:45:33.538Z,47.79
2023-03-15T18:48:00.421Z,47.88
2023-03-15T18:50:28.468Z,47.51
2023-03-15T18:52:55.625Z,47.54
2023-03-15T18:55:22.733Z,47.46
2023-03-15T18:57:52.061Z,48.10
2023-03-15T19:00:27.196Z,47.58
2023-03-15T19:03:00.503Z,47.99
2023-03-15T19:05:31.835Z,47.87
2023-03-15T19:07:58.881Z,47.56
2023-03-15T19:10:26.024Z,47.54
2023-03-15T19:12:53.678Z,47.83
2023-03-15T19:15:22.583Z,47.97
2023-03-15T19:17:51.705Z,47.67
2023-03-15T19:20:23.433Z,48.17
2023-03-15T19:22:52.353Z,47.83
2023-03-15T19:25:20.346Z,47.78
2023-03-15T19:27:49.775Z,47.73
2023-03-15T19:30:20.809Z,48.15
2023-03-15T19:32:49.583Z,47.80
2023-03-15T19:35:18.850Z,47.70
2023-03-15T19:37:46.918Z,47.66
2023-03-15T19:40:16.503Z,47.78
2023-03-15T19:42:44.172Z,47.90
2023-03-15T19:45:12.000Z,47.73
2023-03-15T19:47:40.048Z,47.81
2023-03-15T19:50:14.567Z,47.74
2023-03-15T19:52:46.084Z,47.56
2023-03-15T19:55:21.731Z,47.82
2023-03-15T19:57:49.718Z,47.75
2023-03-15T20:00:18.415Z,47.55
2023-03-15T20:02:47.159Z,48.01
2023-03-15T20:05:20.080Z,47.58
2023-03-15T20:07:53.900Z,47.64
2023-03-15T20:10:21.416Z,47.55
2023-03-15T20:12:48.964Z,47.70
2023-03-15T20:15:18.849Z,47.72
2023-03-15T20:17:45.891Z,47.58
2023-03-15T20:24:20.256Z,47.51
2023-03-15T20:26:51.657Z,47.91
2023-03-15T20:29:18.665Z,47.75
2023-03-15T20:31:45.617Z,47.99
2023-03-15T20:34:12.504Z,47.89
2023-03-15T20:36:42.197Z,47.75
2023-03-15T20:39:21.849Z,47.96
2023-03-15T20:41:49.078Z,47.98
2023-03-15T20:44:16.232Z,47.99
2023-03-15T20:46:43.744Z,47.94
2023-03-15T20:49:10.813Z,48.06
2023-03-15T20:51:40.192Z,48.28
2023-03-15T20:54:07.045Z,48.19
2023-03-15T20:56:34.270Z,48.21
2023-03-15T20:59:04.218Z,48.03
2023-03-15T21:01:31.901Z,48.57
2023-03-15T21:03:59.158Z,48.29
2023-03-15T21:06:25.984Z,48.15
2023-03-15T21:08:52.837Z,48.57
2023-03-15T21:11:19.639Z,48.44
2023-03-15T21:13:46.583Z,48.37
2023-03-15T21:16:13.484Z,48.50
2023-03-15T21:18:47.454Z,48.47
2023-03-15T21:21:14.414Z,48.64
2023-03-15T21:23:41.892Z,48.73
2023-03-15T21:26:11.071Z,48.74
2023-03-15T21:28:38.793Z,48.69
2023-03-15T21:31:06.545Z,48.84
2023-03-15T21:33:33.855Z,48.81
2023-03-15T21:36:01.261Z,48.76
2023-03-15T21:38:31.217Z,49.01
2023-03-15T21:40:59.624Z,48.94
2023-03-15T21:43:30.085Z,49.02
2023-03-15T21:46:14.453Z,48.82
2023-03-15T21:48:41.985Z,49.01
2023-03-15T21:51:09.578Z,49.15
2023-03-15T21:53:36.774Z,49.12
2023-03-15T21:56:05.070Z,49.24
2023-03-15T21:58:32.469Z,49.21
2023-03-15T22:01:02.354Z,49.22
2023-03-15T22:03:30.149Z,49.07
2023-03-15T22:05:57.505Z,49.33
2023-03-15T22:08:24.978Z,48.94
2023-03-15T22:10:57.235Z,48.87
2023-03-15T22:13:24.787Z,48.90
2023-03-15T22:15:52.414Z,48.63
2023-03-15T22:18:19.739Z,48.83
2023-03-15T22:20:48.642Z,48.78
2023-03-15T22:23:15.536Z,49.01
2023-03-15T22:25:42.430Z,48.93
2023-03-15T22:28:09.310Z,48.97
2023-03-15T22:30:36.444Z,49.10
2023-03-15T22:33:03.380Z,49.13
2023-03-15T22:35:30.357Z,49.37
2023-03-15T22:37:57.293Z,49.38
2023-03-15T22:40:27.959Z,49.72
2023-03-15T22:42:57.091Z,49.50
2023-03-15T22:45:25.860Z,49.64
2023-03-15T22:47:53.178Z,49.57
2023-03-15T22:50:20.402Z,49.57
2023-03-15T22:52:48.227Z,49.82
2023-03-15T22:55:15.026Z,49.42
2023-03-15T22:57:41.876Z,49.36
2023-03-15T23:00:13.934Z,49.66
2023-03-15T23:02:44.900Z,49.52
2023-03-15T23:05:13.520Z,49.50
2023-03-15T23:07:41.292Z,50.07
2023-03-15T23:10:09.021Z,49.39
2023-03-15T23:12:36.795Z,49.57
2023-03-15T23:15:04.775Z,49.50
2023-03-15T23:17:31.952Z,49.35
2023-03-15T23:19:58.871Z,49.49
2023-03-15T23:22:25.687Z,49.48
2023-03-15T23:24:52.549Z,49.74
2023-03-15T23:27:19.369Z,49.70
2023-03-15T23:29:54.653Z,49.47
2023-03-15T23:32:24.859Z,49.71
2023-03-15T23:34:53.428Z,49.40
2023-03-15T23:37:20.707Z,49.28
2023-03-15T23:39:47.624Z,49.61
2023-03-15T23:42:14.466Z,49.44
2023-03-15T23:44:41.354Z,49.60
2023-03-15T23:47:08.345Z,49.73
2023-03-15T23:49:35.240Z,49.61
2023-03-15T23:52:05.291Z,49.36
2023-03-15T23:54:41.100Z,49.48
2023-03-15T23:57:11.080Z,49.63
2023-03-15T23:59:38.689Z,49.46
